createdAt,value
2019-04-16T00:00:26.450Z,80.50
2019-04-16T00:02:57.335Z,81.40
2019-04-16T00:05:34.465Z,80.60
2019-04-16T00:08:19.478Z,80.30
2019-04-16T00:10:40.030Z,80.30
2019-04-16T00:13:28.985Z,80.60
2019-04-16T00:15:58.589Z,81.00
2019-04-16T00:18:27.480Z,81.30
2019-04-16T00:21:13.962Z,81.40
2019-04-16T00:23:46.737Z,81.40
2019-04-16T00:26:15.120Z,81.50
2019-04-16T00:28:44.258Z,81.80
2019-04-16T00:31:13.137Z,82.00
2019-04-16T00:33:42.827Z,82.30
2019-04-16T00:36:12.563Z,82.00
2019-04-16T00:38:43.293Z,82.30
2019-04-16T00:41:12.288Z,82.50
2019-04-16T00:43:44.023Z,82.50
2019-04-16T00:46:12.238Z,82.50
2019-04-16T00:48:41.521Z,82.20
2019-04-16T00:51:10.518Z,82.40
2019-04-16T00:53:39.759Z,82.60
2019-04-16T00:56:09.509Z,82.90
2019-04-16T00:58:38.516Z,83.10
2019-04-16T01:01:07.423Z,83.20
2019-04-16T01:03:36.257Z,83.30
2019-04-16T01:06:07.978Z,83.10
2019-04-16T01:08:35.827Z,83.60
2019-04-16T01:11:04.767Z,83.90
2019-04-16T01:13:33.711Z,83.50
2019-04-16T01:16:03.800Z,83.70
2019-04-16T01:18:33.238Z,83.70
2019-04-16T01:21:03.971Z,84.30
2019-04-16T01:23:32.765Z,84.10
2019-04-16T01:26:01.654Z,84.20
2019-04-16T01:28:32.681Z,84.10
2019-04-16T01:31:08.390Z,84.10
2019-04-16T01:33:55.572Z,84.10
2019-04-16T01:36:31.815Z,83.70
2019-04-16T01:39:15.614Z,84.10
2019-04-16T01:41:33.070Z,84.40
2019-04-16T01:44:02.029Z,84.00
2019-04-16T01:46:32.875Z,84.10
2019-04-16T01:49:01.921Z,84.10
2019-04-16T01:51:31.097Z,84.00
2019-04-16T01:54:00.114Z,84.10
2019-04-16T01:56:29.184Z,84.10
2019-04-16T01:58:58.448Z,84.00
2019-04-16T02:01:27.708Z,84.20
2019-04-16T02:03:56.599Z,84.10
2019-04-16T02:06:26.552Z,84.30
2019-04-16T02:08:55.623Z,84.20
2019-04-16T02:11:24.603Z,84.30
2019-04-16T02:13:53.606Z,84.50
2019-04-16T02:16:25.168Z,84.30
2019-04-16T02:18:53.314Z,84.60
2019-04-16T02:21:22.307Z,84.80
2019-04-16T02:23:51.222Z,84.40
2019-04-16T02:26:20.552Z,84.70
2019-04-16T02:28:50.626Z,84.90
2019-04-16T02:31:20.256Z,84.70
2019-04-16T02:33:49.253Z,84.80
2019-04-16T02:36:18.025Z,84.90
2019-04-16T02:38:52.742Z,84.90
2019-04-16T02:41:17.407Z,85.20
2019-04-16T02:43:46.341Z,85.10
2019-04-16T02:46:15.449Z,85.30
2019-04-16T02:48:50.216Z,85.10
2019-04-16T02:51:19.780Z,85.20
2019-04-16T02:53:50.514Z,84.80
2019-04-16T02:56:37.118Z,85.10
2019-04-16T02:59:13.044Z,85.00
2019-04-16T03:01:49.453Z,85.00
2019-04-16T03:04:26.748Z,84.70
2019-04-16T03:06:53.693Z,84.70
2019-04-16T03:09:22.456Z,84.90
2019-04-16T03:11:51.551Z,84.80
2019-04-16T03:14:20.443Z,84.80
2019-04-16T03:17:02.652Z,85.10
2019-04-16T03:19:33.082Z,84.90
2019-04-16T03:22:03.301Z,84.90
2019-04-16T03:24:32.728Z,84.80
2019-04-16T03:27:04.452Z,84.80
2019-04-16T03:29:32.155Z,84.80
2019-04-16T03:32:01.131Z,84.90
2019-04-16T03:34:30.028Z,84.80
2019-04-16T03:37:01.939Z,84.80
2019-04-16T03:39:30.806Z,84.80
2019-04-16T03:41:59.754Z,84.80
2019-04-16T03:44:28.649Z,85.00
2019-04-16T03:46:57.643Z,85.10
2019-04-16T03:49:27.776Z,84.90
2019-04-16T03:51:57.591Z,84.90
2019-04-16T03:54:26.575Z,84.80
2019-04-16T03:56:55.681Z,84.80
2019-04-16T03:59:24.563Z,84.90
2019-04-16T04:01:53.556Z,84.90
2019-04-16T04:04:22.554Z,85.10
2019-04-16T04:06:51.556Z,85.10
2019-04-16T04:09:22.159Z,85.10
2019-04-16T04:11:51.073Z,84.80
2019-04-16T04:14:23.282Z,85.10
2019-04-16T04:16:50.608Z,85.30
2019-04-16T04:19:19.492Z,85.20
2019-04-16T04:21:50.674Z,85.00
2019-04-16T04:24:19.211Z,85.40
2019-04-16T04:26:48.167Z,85.50
2019-04-16T04:29:17.097Z,85.90
2019-04-16T04:31:46.199Z,85.40
2019-04-16T04:34:17.183Z,85.40
2019-04-16T04:36:45.627Z,85.50
2019-04-16T04:39:15.724Z,85.50
2019-04-16T04:41:44.907Z,85.40
2019-04-16T04:44:14.046Z,85.60
2019-04-16T04:46:43.278Z,85.50
2019-04-16T04:49:13.448Z,85.60
2019-04-16T04:51:43.500Z,85.40
2019-04-16T04:54:12.629Z,85.30
2019-04-16T04:56:41.425Z,85.20
2019-04-16T04:59:10.190Z,85.40
2019-04-16T05:01:41.962Z,85.00
2019-04-16T05:04:11.299Z,85.30
2019-04-16T05:06:41.686Z,85.10
2019-04-16T05:09:10.599Z,84.80
2019-04-16T05:11:39.379Z,84.40
2019-04-16T05:14:08.301Z,84.30
2019-04-16T05:16:37.113Z,84.00
2019-04-16T05:19:05.956Z,83.40
2019-04-16T05:21:34.807Z,83.10
2019-04-16T05:24:03.745Z,83.20
2019-04-16T05:26:33.566Z,82.40
2019-04-16T05:29:17.019Z,83.00
2019-04-16T05:31:44.871Z,82.10
2019-04-16T05:34:16.994Z,81.70
2019-04-16T05:36:47.713Z,80.60
2019-04-16T05:39:14.730Z,80.40
2019-04-16T05:41:43.532Z,79.90
2019-04-16T05:44:12.512Z,79.40
2019-04-16T05:46:46.398Z,79.60
2019-04-16T05:49:11.929Z,78.90
2019-04-16T05:51:41.675Z,78.90
2019-04-16T05:54:27.406Z,78.70
2019-04-16T05:56:57.857Z,76.90
2019-04-16T05:59:26.724Z,76.20
2019-04-16T06:02:15.134Z,74.30
2019-04-16T06:04:42.779Z,74.60
2019-04-16T06:07:11.623Z,75.20
2019-04-16T06:09:41.514Z,73.40
2019-04-16T06:12:11.170Z,73.30
2019-04-16T06:14:41.710Z,72.20
2019-04-16T06:17:12.209Z,68.60
2019-04-16T06:19:47.432Z,65.70
2019-04-16T06:22:30.195Z,63.40
2019-04-16T06:25:16.981Z,61.20
2019-04-16T06:28:04.847Z,61.50
2019-04-16T06:30:51.355Z,60.70
2019-04-16T06:33:27.821Z,60.00
2019-04-16T06:35:58.207Z,59.70
2019-04-16T06:38:31.653Z,62.30
2019-04-16T06:41:18.348Z,62.40
2019-04-16T06:43:58.283Z,63.10
2019-04-16T06:46:29.732Z,63.90
2019-04-16T06:49:17.793Z,65.00
2019-04-16T06:51:59.684Z,65.10
2019-04-16T06:54:33.199Z,63.70
2019-04-16T06:57:12.948Z,63.80
2019-04-16T06:59:52.195Z,61.60
2019-04-16T07:02:43.071Z,62.90
2019-04-16T07:05:32.124Z,63.70
2019-04-16T07:08:02.049Z,61.70
2019-04-16T07:10:44.058Z,60.60
2019-04-16T07:13:03.007Z,60.70
2019-04-16T07:15:31.769Z,59.10
2019-04-16T07:18:02.520Z,59.40
2019-04-16T07:20:31.093Z,57.60
2019-04-16T07:22:59.885Z,57.80
2019-04-16T07:25:29.749Z,59.30
2019-04-16T07:28:00.630Z,57.70
2019-04-16T07:30:40.548Z,57.50
2019-04-16T07:33:11.356Z,57.60
2019-04-16T07:35:53.449Z,58.90
2019-04-16T07:38:26.535Z,58.50
2019-04-16T07:40:57.102Z,59.60
2019-04-16T07:43:33.327Z,59.00
2019-04-16T07:46:18.818Z,58.00
2019-04-16T07:48:55.701Z,57.30
2019-04-16T07:51:26.200Z,57.00
2019-04-16T07:54:05.499Z,56.70
2019-04-16T07:56:34.960Z,55.80
2019-04-16T07:59:03.972Z,54.30
2019-04-16T08:01:32.896Z,55.10
2019-04-16T08:04:03.176Z,52.30
2019-04-16T08:06:32.238Z,52.70
2019-04-16T08:09:01.123Z,53.30
2019-04-16T08:11:29.935Z,53.00
2019-04-16T08:13:58.856Z,51.90
2019-04-16T08:16:27.715Z,52.20
2019-04-16T08:18:56.713Z,53.50
2019-04-16T08:21:25.620Z,49.90
2019-04-16T08:24:11.305Z,48.60
2019-04-16T08:26:41.556Z,51.00
2019-04-16T08:29:10.692Z,51.10
2019-04-16T08:31:44.516Z,50.40
2019-04-16T08:34:11.718Z,47.40
2019-04-16T08:36:40.569Z,45.90
2019-04-16T08:39:11.415Z,46.90
2019-04-16T08:41:40.247Z,45.60
2019-04-16T08:44:10.408Z,45.10
2019-04-16T08:46:40.408Z,45.50
2019-04-16T08:49:10.059Z,42.30
2019-04-16T08:51:38.819Z,41.40
2019-04-16T08:54:07.898Z,43.70
2019-04-16T08:56:36.828Z,42.90
2019-04-16T08:59:09.605Z,45.40
2019-04-16T09:01:36.272Z,44.20
2019-04-16T09:04:05.283Z,41.60
2019-04-16T09:06:34.134Z,40.90
2019-04-16T09:09:14.636Z,42.30
2019-04-16T09:11:39.898Z,39.70
2019-04-16T09:14:08.794Z,40.50
2019-04-16T09:16:39.267Z,36.40
2019-04-16T09:19:09.725Z,36.90
2019-04-16T09:21:43.455Z,38.00
2019-04-16T09:24:22.690Z,37.20
2019-04-16T09:27:12.414Z,36.40
2019-04-16T09:29:58.265Z,37.00
2019-04-16T09:32:31.219Z,37.10
2019-04-16T09:35:14.222Z,36.30
2019-04-16T09:37:58.934Z,36.80
2019-04-16T09:40:29.456Z,36.00
2019-04-16T09:42:59.748Z,35.00
2019-04-16T09:45:28.648Z,36.90
2019-04-16T09:47:57.571Z,34.20
2019-04-16T09:50:26.390Z,35.60
2019-04-16T09:52:56.157Z,34.30
2019-04-16T09:55:25.300Z,35.40
2019-04-16T09:57:54.167Z,36.20
2019-04-16T10:00:24.700Z,36.00
2019-04-16T10:02:55.197Z,35.90
2019-04-16T10:05:26.553Z,33.80
2019-04-16T10:07:56.918Z,36.40
2019-04-16T10:10:28.278Z,35.70
2019-04-16T10:12:55.811Z,35.00
2019-04-16T10:15:24.596Z,37.10
2019-04-16T10:17:53.611Z,35.10
2019-04-16T10:20:22.473Z,36.50
2019-04-16T10:22:51.366Z,36.00
2019-04-16T10:25:20.338Z,34.40
2019-04-16T10:27:50.894Z,34.70
2019-04-16T10:30:24.399Z,37.00
2019-04-16T10:32:53.386Z,34.40
2019-04-16T10:35:22.521Z,33.60
2019-04-16T10:37:51.459Z,33.70
2019-04-16T10:40:21.869Z,34.10
2019-04-16T10:43:04.595Z,36.20
2019-04-16T10:45:44.167Z,34.90
2019-04-16T10:48:30.872Z,34.70
2019-04-16T10:51:16.566Z,32.50
2019-04-16T10:54:02.074Z,33.50
2019-04-16T10:56:49.035Z,32.10
2019-04-16T10:59:35.758Z,32.20
2019-04-16T11:02:12.303Z,32.40
2019-04-16T11:04:43.300Z,34.10
2019-04-16T11:07:14.523Z,33.10
2019-04-16T11:09:43.294Z,34.10
2019-04-16T11:12:12.253Z,31.60
2019-04-16T11:14:41.169Z,32.70
2019-04-16T11:17:10.165Z,33.60
2019-04-16T11:19:39.285Z,31.40
2019-04-16T11:22:08.367Z,30.60
2019-04-16T11:24:37.420Z,34.40
2019-04-16T11:27:06.342Z,32.90
2019-04-16T11:29:35.173Z,34.80
2019-04-16T11:32:04.300Z,33.60
2019-04-16T11:34:33.159Z,32.00
2019-04-16T11:37:07.469Z,34.50
2019-04-16T11:39:32.623Z,29.90
2019-04-16T11:42:01.525Z,30.70
2019-04-16T11:44:30.452Z,32.30
2019-04-16T11:46:59.325Z,29.20
2019-04-16T11:49:28.248Z,30.30
2019-04-16T11:51:58.152Z,29.40
2019-04-16T11:54:27.082Z,31.30
2019-04-16T11:56:59.506Z,29.40
2019-04-16T11:59:26.426Z,31.70
2019-04-16T12:02:09.193Z,32.60
2019-04-16T12:04:58.827Z,31.30
2019-04-16T12:07:29.322Z,30.50
2019-04-16T12:10:15.726Z,30.30
2019-04-16T12:13:04.712Z,35.20
2019-04-16T12:15:47.103Z,30.60
2019-04-16T12:18:20.742Z,30.50
2019-04-16T12:20:57.204Z,33.40
2019-04-16T12:23:36.584Z,34.40
2019-04-16T12:26:12.967Z,33.90
2019-04-16T12:28:46.216Z,33.50
2019-04-16T12:31:32.836Z,32.70
2019-04-16T12:34:15.467Z,33.10
2019-04-16T12:36:57.798Z,30.20
2019-04-16T12:39:28.311Z,29.80
2019-04-16T12:42:00.171Z,32.30
2019-04-16T12:44:45.214Z,31.20
2019-04-16T12:47:17.913Z,31.80
2019-04-16T12:49:53.869Z,33.00
2019-04-16T12:52:24.270Z,33.80
2019-04-16T12:55:13.296Z,31.70
2019-04-16T12:57:47.282Z,31.90
2019-04-16T13:00:34.079Z,31.10
2019-04-16T13:03:18.147Z,30.10
2019-04-16T13:05:54.687Z,29.40
2019-04-16T13:08:34.090Z,32.00
2019-04-16T13:11:21.805Z,34.60
2019-04-16T13:13:52.291Z,33.00
2019-04-16T13:16:22.723Z,32.60
2019-04-16T13:18:59.199Z,31.60
2019-04-16T13:21:29.690Z,33.00
2019-04-16T13:24:00.101Z,33.60
2019-04-16T13:26:36.396Z,32.30
2019-04-16T13:29:06.793Z,31.00
2019-04-16T13:31:36.407Z,33.20
2019-04-16T13:34:06.173Z,29.50
2019-04-16T13:36:35.047Z,31.70
2019-04-16T13:39:09.870Z,31.10
2019-04-16T13:41:39.561Z,31.10
2019-04-16T13:44:10.058Z,32.20
2019-04-16T13:46:39.006Z,31.40
2019-04-16T13:49:10.244Z,31.40
2019-04-16T13:51:39.112Z,31.10
2019-04-16T13:54:12.133Z,30.60
2019-04-16T13:56:50.426Z,30.90
2019-04-16T13:59:23.094Z,30.10
2019-04-16T14:01:53.546Z,31.00
2019-04-16T14:04:22.452Z,32.00
2019-04-16T14:06:51.333Z,30.00
2019-04-16T14:09:20.213Z,30.50
2019-04-16T14:11:51.294Z,32.60
2019-04-16T14:14:22.579Z,31.00
2019-04-16T14:16:50.238Z,31.30
2019-04-16T14:19:19.075Z,30.60
2019-04-16T14:21:47.968Z,29.20
2019-04-16T14:24:16.859Z,30.10
2019-04-16T14:26:45.748Z,28.20
2019-04-16T14:29:14.748Z,28.50
2019-04-16T14:31:46.063Z,31.10
2019-04-16T14:34:18.127Z,32.60
2019-04-16T14:37:31.643Z,30.00
2019-04-16T14:40:02.287Z,30.00
2019-04-16T14:42:31.185Z,30.80
2019-04-16T14:45:20.094Z,29.20
2019-04-16T14:47:49.059Z,27.90
2019-04-16T14:50:19.893Z,27.10
2019-04-16T14:52:48.488Z,27.00
2019-04-16T14:55:35.411Z,27.90
2019-04-16T14:58:05.918Z,27.50
2019-04-16T15:00:39.338Z,28.60
2019-04-16T15:03:15.909Z,29.30
2019-04-16T15:05:55.335Z,28.50
2019-04-16T15:08:37.765Z,27.70
2019-04-16T15:11:11.240Z,28.10
2019-04-16T15:13:47.635Z,28.30
2019-04-16T15:16:22.360Z,27.80
2019-04-16T15:19:04.826Z,28.20
2019-04-16T15:21:35.265Z,29.90
2019-04-16T15:24:05.671Z,29.50
2019-04-16T15:26:38.694Z,28.50
2019-04-16T15:29:11.537Z,27.80
2019-04-16T15:31:44.628Z,30.30
2019-04-16T15:34:15.111Z,28.50
2019-04-16T15:36:49.916Z,29.20
2019-04-16T15:39:17.805Z,29.80
2019-04-16T15:42:04.619Z,29.70
2019-04-16T15:44:35.152Z,31.70
2019-04-16T15:47:21.984Z,29.90
2019-04-16T15:49:58.530Z,31.10
2019-04-16T15:52:31.701Z,31.90
2019-04-16T15:55:14.423Z,31.90
2019-04-16T15:58:04.624Z,32.90
2019-04-16T16:00:35.070Z,32.10
2019-04-16T16:03:05.758Z,31.90
2019-04-16T16:05:45.304Z,32.00
2019-04-16T16:08:18.640Z,31.10
2019-04-16T16:10:49.127Z,32.50
2019-04-16T16:13:17.962Z,31.90
2019-04-16T16:15:46.844Z,32.00
2019-04-16T16:18:15.821Z,32.00
2019-04-16T16:20:44.739Z,32.90
2019-04-16T16:23:13.518Z,32.60
2019-04-16T16:25:42.295Z,32.60
2019-04-16T16:28:11.178Z,32.20
2019-04-16T16:30:40.071Z,30.50
2019-04-16T16:33:08.893Z,30.80
2019-04-16T16:35:37.639Z,31.60
2019-04-16T16:38:06.562Z,31.60
2019-04-16T16:40:35.659Z,31.40
2019-04-16T16:43:07.960Z,32.60
2019-04-16T16:45:53.102Z,32.70
2019-04-16T16:48:23.666Z,34.20
2019-04-16T16:50:52.511Z,30.90
2019-04-16T16:53:39.231Z,33.30
2019-04-16T16:56:09.817Z,33.20
2019-04-16T16:58:43.172Z,32.30
2019-04-16T17:01:33.421Z,33.10
2019-04-16T17:04:00.721Z,33.80
2019-04-16T17:06:31.141Z,34.50
2019-04-16T17:09:00.107Z,34.50
2019-04-16T17:11:28.991Z,35.10
2019-04-16T17:14:01.287Z,34.90
2019-04-16T17:16:28.441Z,34.10
2019-04-16T17:18:57.331Z,36.00
2019-04-16T17:21:26.093Z,34.80
2019-04-16T17:23:55.112Z,33.90
2019-04-16T17:26:24.005Z,36.10
2019-04-16T17:28:52.797Z,35.20
2019-04-16T17:31:21.687Z,34.10
2019-04-16T17:33:51.531Z,35.40
2019-04-16T17:36:20.309Z,34.40
2019-04-16T17:38:49.193Z,35.70
2019-04-16T17:41:28.910Z,37.00
2019-04-16T17:44:03.525Z,37.60
2019-04-16T17:46:49.754Z,37.30
2019-04-16T17:49:23.154Z,36.90
2019-04-16T17:52:05.558Z,38.50
2019-04-16T17:54:36.344Z,38.80
2019-04-16T17:57:12.276Z,38.80
2019-04-16T17:59:51.904Z,40.00
2019-04-16T18:02:31.432Z,39.30
2019-04-16T18:05:18.147Z,40.70
2019-04-16T18:08:04.700Z,41.00
2019-04-16T18:10:51.146Z,40.50
2019-04-16T18:13:21.685Z,41.10
2019-04-16T18:15:53.465Z,40.90
2019-04-16T18:18:26.861Z,40.90
2019-04-16T18:21:00.222Z,41.50
2019-04-16T18:23:49.275Z,43.00
2019-04-16T18:26:28.614Z,42.70
2019-04-16T18:29:11.151Z,43.30
2019-04-16T18:32:00.377Z,43.80
2019-04-16T18:34:33.481Z,44.30
2019-04-16T18:37:19.862Z,44.40
2019-04-16T18:40:08.527Z,44.90
2019-04-16T18:42:41.565Z,45.50
2019-04-16T18:45:23.617Z,45.40
2019-04-16T18:48:04.942Z,45.40
2019-04-16T18:50:29.007Z,45.60
2019-04-16T18:53:00.566Z,45.90
2019-04-16T18:55:29.466Z,46.90
2019-04-16T18:57:58.774Z,46.00
2019-04-16T19:00:35.331Z,46.50
2019-04-16T19:03:04.453Z,47.00
2019-04-16T19:05:33.471Z,47.60
2019-04-16T19:08:02.284Z,47.70
2019-04-16T19:10:31.517Z,47.90
2019-04-16T19:13:00.681Z,49.10
2019-04-16T19:15:29.685Z,49.50
2019-04-16T19:17:58.712Z,49.90
2019-04-16T19:20:27.587Z,50.00
2019-04-16T19:22:56.500Z,50.60
2019-04-16T19:25:25.485Z,50.60
2019-04-16T19:27:54.352Z,50.80
2019-04-16T19:30:23.266Z,50.80
2019-04-16T19:32:52.565Z,51.20
2019-04-16T19:35:22.598Z,51.20
2019-04-16T19:37:51.995Z,51.30
2019-04-16T19:40:20.885Z,52.30
2019-04-16T19:42:49.883Z,52.60
2019-04-16T19:45:18.780Z,53.30
2019-04-16T19:47:47.619Z,53.00
2019-04-16T19:50:16.544Z,53.10
2019-04-16T19:52:45.835Z,53.10
2019-04-16T19:55:15.024Z,53.10
2019-04-16T19:57:44.688Z,52.90
2019-04-16T20:00:13.719Z,53.40
2019-04-16T20:02:42.643Z,53.40
2019-04-16T20:05:11.448Z,53.60
2019-04-16T20:07:41.474Z,53.80
2019-04-16T20:10:10.438Z,53.60
2019-04-16T20:12:39.224Z,53.80
2019-04-16T20:15:09.670Z,54.90
2019-04-16T20:17:38.869Z,55.30
2019-04-16T20:20:07.820Z,55.00
2019-04-16T20:22:36.637Z,55.50
2019-04-16T20:25:06.510Z,55.60
2019-04-16T20:27:36.192Z,56.00
2019-04-16T20:30:08.516Z,56.30
2019-04-16T20:32:37.423Z,56.50
2019-04-16T20:35:06.226Z,56.30
2019-04-16T20:37:34.900Z,56.70
2019-04-16T20:40:04.616Z,56.00
2019-04-16T20:42:33.516Z,55.80
2019-04-16T20:45:02.405Z,55.50
2019-04-16T20:47:31.284Z,56.00
2019-04-16T20:50:03.946Z,56.20
2019-04-16T20:52:30.877Z,56.10
2019-04-16T20:55:01.244Z,56.30
2019-04-16T20:57:30.032Z,56.30
2019-04-16T20:59:59.879Z,56.40
2019-04-16T21:02:30.477Z,56.10
2019-04-16T21:05:02.596Z,55.80
2019-04-16T21:07:29.701Z,56.00
2019-04-16T21:09:59.867Z,56.10
2019-04-16T21:12:28.886Z,56.40
2019-04-16T21:14:57.700Z,56.10
2019-04-16T21:17:26.691Z,56.10
2019-04-16T21:19:55.777Z,56.00
2019-04-16T21:22:24.984Z,56.00
2019-04-16T21:24:55.723Z,56.40
2019-04-16T21:27:24.613Z,56.10
2019-04-16T21:29:53.469Z,56.10
2019-04-16T21:32:24.033Z,56.70
2019-04-16T21:34:59.893Z,56.30
2019-04-16T21:37:41.272Z,56.80
2019-04-16T21:40:11.179Z,57.00
2019-04-16T21:42:40.047Z,57.60
2019-04-16T21:45:08.978Z,57.60
2019-04-16T21:47:37.850Z,57.60
2019-04-16T21:50:08.555Z,57.50
2019-04-16T21:52:37.568Z,57.70
2019-04-16T21:55:07.899Z,57.80
2019-04-16T21:57:36.666Z,58.80
2019-04-16T22:00:09.576Z,58.60
2019-04-16T22:02:39.978Z,59.00
2019-04-16T22:05:09.490Z,59.70
2019-04-16T22:07:38.422Z,60.00
2019-04-16T22:10:07.385Z,60.70
2019-04-16T22:12:36.276Z,60.30
2019-04-16T22:15:07.455Z,60.40
2019-04-16T22:17:36.801Z,60.70
2019-04-16T22:20:07.074Z,61.00
2019-04-16T22:22:36.025Z,60.70
2019-04-16T22:25:06.251Z,60.70
2019-04-16T22:27:36.860Z,61.30
2019-04-16T22:30:07.186Z,61.20
2019-04-16T22:32:36.148Z,62.10
2019-04-16T22:35:06.539Z,62.30
2019-04-16T22:37:35.469Z,62.40
2019-04-16T22:40:25.970Z,63.80
2019-04-16T22:43:06.233Z,64.30
2019-04-16T22:45:36.753Z,64.00
2019-04-16T22:48:05.642Z,63.30
2019-04-16T22:50:34.719Z,64.00
2019-04-16T22:53:05.169Z,63.60
2019-04-16T22:55:34.156Z,64.00
2019-04-16T22:58:04.785Z,63.30
2019-04-16T23:00:35.531Z,62.90
2019-04-16T23:03:04.804Z,63.70
2019-04-16T23:05:34.422Z,64.20
2019-04-16T23:08:03.433Z,63.80
2019-04-16T23:10:32.311Z,63.60
2019-04-16T23:13:01.673Z,64.10
2019-04-16T23:15:31.022Z,64.40
2019-04-16T23:17:59.921Z,64.40
2019-04-16T23:20:30.062Z,65.20
2019-04-16T23:22:59.411Z,64.70
2019-04-16T23:25:28.336Z,65.30
2019-04-16T23:27:57.707Z,65.40
2019-04-16T23:30:26.712Z,65.30
2019-04-16T23:32:58.994Z,65.80
2019-04-16T23:35:26.264Z,65.40
2019-04-16T23:37:59.248Z,65.70
2019-04-16T23:40:27.110Z,65.80
2019-04-16T23:42:58.032Z,64.80
2019-04-16T23:45:34.391Z,64.20
2019-04-16T23:48:14.179Z,64.40
2019-04-16T23:50:45.171Z,64.20
2019-04-16T23:53:17.979Z,65.10
2019-04-16T23:56:00.807Z,65.50
2019-04-16T23:58:37.173Z,64.90
